Time;durP1;ratioP1;P1;durP2;ratioP2;P2;SDS_P1;SDS_P2;PMS_P1;PMS_P2;Temp;Humidity;BMP_temperature;BMP_pressure;BME280_temperature;BME280_humidity;BME280_pressure;Samples;Min_cycle;Max_cycle;Signal;HPM_P1;HPM_P2
2022/04/17 00:02:05;;;;;;;;;2.00;2.00;;;;;-146.03;100.00;60875.16;6242862;22;51422;-88
2022/04/17 00:04:30;;;;;;;;;4.00;4.00;;;;;-146.03;100.00;60875.16;6271663;22;45179;-87
2022/04/17 00:06:56;;;;;;;;;4.25;4.25;;;;;-146.03;100.00;60875.16;6270313;22;45405;-88
2022/04/17 00:09:21;;;;;;;;;4.25;4.25;;;;;-146.03;100.00;60875.16;6270692;22;46061;-87
2022/04/17 00:11:47;;;;;;;;;5.00;3.00;;;;;-146.03;100.00;60875.16;6271117;22;45277;-87
2022/04/17 00:14:12;;;;;;;;;3.00;3.00;;;;;-146.03;100.00;60875.16;6242961;22;45292;-87
2022/04/17 00:16:40;;;;;;;;;3.50;3.50;;;;;-146.03;100.00;60875.16;6270343;22;45322;-87
2022/04/17 00:19:08;;;;;;;;;2.00;2.00;;;;;-146.03;100.00;60875.16;6242388;22;47283;-87
2022/04/17 00:21:34;;;;;;;;;3.50;3.50;;;;;-146.03;100.00;60875.16;6269513;22;45301;-86
2022/04/17 00:23:59;;;;;;;;;4.00;3.00;;;;;-146.03;100.00;60875.16;6269793;22;45280;-86
2022/04/17 00:26:25;;;;;;;;;3.25;3.00;;;;;-146.03;100.00;60875.16;6270562;22;45478;-88
2022/04/17 00:28:50;;;;;;;;;3.75;2.75;;;;;-146.03;100.00;60875.16;6270267;22;52462;-89
2022/04/17 00:31:16;;;;;;;;;3.25;3.25;;;;;-146.03;100.00;60875.16;6271412;22;45362;-87
2022/04/17 00:33:41;;;;;;;;;4.00;4.00;;;;;-146.03;100.00;60875.16;6271277;22;45330;-88
2022/04/17 00:36:06;;;;;;;;;3.75;3.75;;;;;-146.03;100.00;60875.16;6272581;22;45376;-86
2022/04/17 00:38:32;;;;;;;;;4.00;4.00;;;;;-146.03;100.00;60875.16;6272385;22;46065;-87
2022/04/17 00:40:57;;;;;;;;;3.75;3.75;;;;;-146.03;100.00;60875.16;6272897;22;45314;-86
2022/04/17 00:43:22;;;;;;;;;4.00;3.50;;;;;-146.03;100.00;60875.16;6273086;22;45309;-86
2022/04/17 00:45:47;;;;;;;;;4.25;4.25;;;;;-146.03;100.00;60875.16;6273116;22;45277;-88
2022/04/17 00:48:13;;;;;;;;;5.00;5.00;;;;;-146.03;100.00;60875.16;6245245;22;47372;-88
2022/04/17 00:50:38;;;;;;;;;5.25;5.25;;;;;-146.03;100.00;60875.16;6272418;22;54542;-87
2022/04/17 00:53:04;;;;;;;;;3.25;3.25;;;;;-146.03;100.00;60875.16;6273275;22;45363;-87
2022/04/17 00:55:29;;;;;;;;;5.00;5.00;;;;;-146.03;100.00;60875.16;6273257;22;45325;-88
2022/04/17 00:57:54;;;;;;;;;6.50;4.75;;;;;-146.03;100.00;60875.16;6244541;22;46159;-87
2022/04/17 01:00:20;;;;;;;;;4.25;3.75;;;;;-146.03;100.00;60875.16;6272675;22;45359;-88
2022/04/17 01:02:45;;;;;;;;;4.00;4.00;;;;;-146.03;100.00;60875.16;6272866;22;45317;-88
2022/04/17 01:05:10;;;;;;;;;4.25;4.00;;;;;-146.03;100.00;60875.16;6245172;22;45428;-89
2022/04/17 01:07:37;;;;;;;;;3.25;3.25;;;;;-146.03;100.00;60875.16;6273026;22;47784;-88
2022/04/17 01:10:03;;;;;;;;;4.25;3.25;;;;;-146.03;100.00;60875.16;6273010;22;45322;-88
2022/04/17 01:12:29;;;;;;;;;5.00;5.00;;;;;-146.03;100.00;60875.16;6272406;22;45349;-89
2022/04/17 01:14:55;;;;;;;;;7.75;7.00;;;;;-146.03;100.00;60875.16;6272948;22;45324;-87
2022/04/17 01:17:20;;;;;;;;;6.25;6.25;;;;;-146.03;100.00;60875.16;6272729;22;45294;-87
2022/04/17 01:19:46;;;;;;;;;6.00;6.00;;;;;-146.03;100.00;60875.16;6271896;22;61900;-86
2022/04/17 01:22:11;;;;;;;;;4.00;4.00;;;;;-146.03;100.00;60875.16;6273215;22;45306;-87
2022/04/17 01:27:32;;;;;;;;;4.50;4.50;;;;;-146.03;100.00;60875.16;6146568;23;46068;-87
2022/04/17 01:29:58;;;;;;;;;4.00;4.00;;;;;-146.03;100.00;60875.16;6148132;23;45291;-87
2022/04/17 01:32:23;;;;;;;;;3.00;3.00;;;;;-146.03;100.00;60875.16;6148364;23;45649;-87
2022/04/17 01:34:49;;;;;;;;;3.00;3.00;;;;;-146.03;100.00;60875.16;6148085;23;48952;-87
2022/04/17 01:37:15;;;;;;;;;4.00;4.00;;;;;-146.03;100.00;60875.16;6148375;23;45318;-87
2022/04/17 01:39:41;;;;;;;;;3.00;3.00;;;;;-146.03;100.00;60875.16;6148389;23;45516;-88
2022/04/17 01:42:06;;;;;;;;;5.75;5.75;;;;;-146.03;100.00;60875.16;6147596;23;45351;-87
2022/04/17 01:44:32;;;;;;;;;3.00;3.00;;;;;-146.03;100.00;60875.16;6148270;23;45401;-87
2022/04/17 01:47:00;;;;;;;;;4.25;4.25;;;;;-146.03;100.00;60875.16;6147886;23;45849;-88
2022/04/17 01:49:25;;;;;;;;;3.25;3.25;;;;;-146.03;100.00;60875.16;6148509;23;45291;-87
2022/04/17 01:51:52;;;;;;;;;4.75;4.25;;;;;-146.03;100.00;60875.16;6148186;23;45400;-87
2022/04/17 01:54:18;;;;;;;;;5.25;4.00;;;;;-146.03;100.00;60875.16;6148021;23;45334;-86
2022/04/17 01:56:47;;;;;;;;;4.00;4.00;;;;;-146.03;100.00;60875.16;6147592;23;45640;-87
2022/04/17 01:59:13;;;;;;;;;4.00;4.00;;;;;-146.03;100.00;60875.16;6148227;23;45558;-87
2022/04/17 02:01:40;;;;;;;;;2.50;2.50;;;;;-146.03;100.00;60875.16;6148538;23;45298;-87
2022/04/17 02:04:07;;;;;;;;;3.75;3.75;;;;;-146.03;100.00;60875.16;6218190;22;45417;-86
2022/04/17 02:06:34;;;;;;;;;4.00;4.00;;;;;-146.03;100.00;60875.16;6272889;22;45339;-87
2022/04/17 02:09:00;;;;;;;;;3.25;3.25;;;;;-146.03;100.00;60875.16;6271902;22;45396;-87
2022/04/17 02:11:26;;;;;;;;;3.00;3.00;;;;;-146.03;100.00;60875.16;6272783;22;45269;-87
2022/04/17 02:13:52;;;;;;;;;3.25;3.25;;;;;-146.03;100.00;60875.16;6272900;22;45277;-87
2022/04/17 02:16:18;;;;;;;;;2.00;2.00;;;;;-146.03;100.00;60875.16;6244786;22;46138;-86
2022/04/17 02:18:45;;;;;;;;;4.00;4.00;;;;;-146.03;100.00;60875.16;6244766;22;45461;-87
2022/04/17 02:21:12;;;;;;;;;4.00;3.25;;;;;-146.03;100.00;60875.16;6271962;22;45305;-87
2022/04/17 02:23:38;;;;;;;;;3.50;3.50;;;;;-146.03;100.00;60875.16;6272314;22;45321;-86
2022/04/17 02:26:03;;;;;;;;;2.75;2.75;;;;;-146.03;100.00;60875.16;6244715;22;47188;-87
2022/04/17 02:28:34;;;;;;;;;3.75;3.75;;;;;-146.03;100.00;60875.16;6244368;22;45713;-86
2022/04/17 02:31:00;;;;;;;;;3.00;3.00;;;;;-146.03;100.00;60875.16;6244862;22;45384;-87
2022/04/17 02:33:25;;;;;;;;;4.25;4.25;;;;;-146.03;100.00;60875.16;6272440;22;45305;-87
2022/04/17 02:35:53;;;;;;;;;3.00;3.00;;;;;-146.03;100.00;60875.16;6271891;22;52927;-87
2022/04/17 02:38:18;;;;;;;;;4.50;4.00;;;;;-146.03;100.00;60875.16;6272138;22;45371;-87
2022/04/17 02:40:43;;;;;;;;;4.75;4.75;;;;;-146.03;100.00;60875.16;6272936;22;45328;-87
2022/04/17 02:43:09;;;;;;;;;4.75;4.75;;;;;-146.03;100.00;60875.16;6273735;22;45297;-87
2022/04/17 02:45:34;;;;;;;;;5.00;4.50;;;;;-146.03;100.00;60875.16;6273385;22;45351;-86
2022/04/17 02:47:59;;;;;;;;;5.00;4.50;;;;;-146.03;100.00;60875.16;6272931;22;55947;-87
2022/04/17 02:50:25;;;;;;;;;4.25;3.00;;;;;-146.03;100.00;60875.16;6272989;22;60572;-87
2022/04/17 02:52:55;;;;;;;;;2.75;2.75;;;;;-146.03;100.00;60875.16;6272962;22;45225;-86
2022/04/17 02:55:20;;;;;;;;;4.75;3.75;;;;;-146.03;100.00;60875.16;6273541;22;45331;-87
2022/04/17 02:57:46;;;;;;;;;4.00;4.00;;;;;-146.03;100.00;60875.16;6273421;22;45315;-86
2022/04/17 03:00:11;;;;;;;;;2.75;2.75;;;;;-146.03;100.00;60875.16;6273428;22;45278;-87
2022/04/17 03:05:36;;;;;;;;;3.75;3.50;;;;;-146.03;100.00;60875.16;6273417;22;45743;-87
2022/04/17 03:08:02;;;;;;;;;4.00;4.00;;;;;-146.03;100.00;60875.16;6275000;22;45239;-87
2022/04/17 03:10:27;;;;;;;;;3.00;3.00;;;;;-146.03;100.00;60875.16;6276851;22;45305;-87
2022/04/17 03:12:52;;;;;;;;;3.75;3.75;;;;;-146.03;100.00;60875.16;6278827;22;57784;-87
2022/04/17 03:15:18;;;;;;;;;4.75;3.00;;;;;-146.03;100.00;60875.16;6272551;22;62325;-86
2022/04/17 03:17:43;;;;;;;;;4.25;4.25;;;;;-146.03;100.00;60875.16;6273483;22;45274;-86
2022/04/17 03:20:09;;;;;;;;;4.50;4.50;;;;;-146.03;100.00;60875.16;6273262;22;45365;-86
2022/04/17 03:22:35;;;;;;;;;5.00;5.00;;;;;-146.03;100.00;60875.16;6273352;22;45345;-86
2022/04/17 03:25:02;;;;;;;;;5.00;5.00;;;;;-146.03;100.00;60875.16;6245609;22;48715;-86
2022/04/17 03:27:30;;;;;;;;;4.75;4.00;;;;;-146.03;100.00;60875.16;6272529;22;45225;-86
2022/04/17 03:29:56;;;;;;;;;4.50;4.00;;;;;-146.03;100.00;60875.16;6273080;22;45288;-86
2022/04/17 03:32:21;;;;;;;;;5.00;4.25;;;;;-146.03;100.00;60875.16;6245750;22;45265;-87
2022/04/17 03:34:47;;;;;;;;;4.75;4.75;;;;;-146.03;100.00;60875.16;6271661;22;54453;-87
2022/04/17 03:37:14;;;;;;;;;4.00;4.00;;;;;-146.03;100.00;60875.16;6272620;22;45309;-88
2022/04/17 03:39:39;;;;;;;;;3.75;3.75;;;;;-146.03;100.00;60875.16;6273501;22;45310;-89
2022/04/17 03:42:05;;;;;;;;;4.25;4.00;;;;;-146.03;100.00;60875.16;6245205;22;45286;-88
2022/04/17 03:44:31;;;;;;;;;6.00;4.00;;;;;-146.03;100.00;60875.16;6273260;22;45442;-89
2022/04/17 03:46:56;;;;;;;;;2.50;2.50;;;;;-146.03;100.00;60875.16;6273693;22;45282;-89
2022/04/17 03:49:21;;;;;;;;;3.75;3.75;;;;;-146.03;100.00;60875.16;6273198;22;45312;-89
2022/04/17 03:51:46;;;;;;;;;2.75;2.75;;;;;-146.03;100.00;60875.16;6272249;22;52108;-89
2022/04/17 03:54:12;;;;;;;;;3.75;3.75;;;;;-146.03;100.00;60875.16;6273571;22;45289;-89
2022/04/17 03:56:37;;;;;;;;;4.25;4.25;;;;;-146.03;100.00;60875.16;6273296;22;45229;-89
2022/04/17 03:59:03;;;;;;;;;5.25;4.00;;;;;-146.03;100.00;60875.16;6274170;22;45281;-89
2022/04/17 04:01:29;;;;;;;;;7.00;4.25;;;;;-146.03;100.00;60875.16;6274145;22;45398;-89
2022/04/17 04:03:54;;;;;;;;;3.00;3.00;;;;;-146.03;100.00;60875.16;6274089;22;46306;-89
2022/04/17 04:06:21;;;;;;;;;4.00;4.00;;;;;-146.03;100.00;60875.16;6273762;22;45370;-90
2022/04/17 04:08:48;;;;;;;;;5.00;5.00;;;;;-146.03;100.00;60875.16;6274416;22;45349;-90
2022/04/17 04:11:13;;;;;;;;;6.00;6.00;;;;;-146.03;100.00;60875.16;6274323;22;45328;-90
2022/04/17 04:13:38;;;;;;;;;4.00;4.00;;;;;-146.03;100.00;60875.16;6274044;22;45240;-89
2022/04/17 04:16:04;;;;;;;;;4.00;4.00;;;;;-146.03;100.00;60875.16;6273508;22;55738;-89
2022/04/17 04:18:29;;;;;;;;;3.00;3.00;;;;;-146.03;100.00;60875.16;6274235;22;45435;-89
2022/04/17 04:20:55;;;;;;;;;4.25;4.25;;;;;-146.03;100.00;60875.16;6273335;22;45292;-89
2022/04/17 04:23:21;;;;;;;;;4.25;3.00;;;;;-146.03;100.00;60875.16;6273897;22;45904;-90
2022/04/17 04:25:46;;;;;;;;;6.00;3.00;;;;;-146.03;100.00;60875.16;6273993;22;45270;-89
2022/04/17 04:30:56;;;;;;;;;3.25;3.25;;;;;-146.03;100.00;60875.16;6274144;22;45259;-90
2022/04/17 04:33:21;;;;;;;;;5.00;4.25;;;;;-146.03;100.00;60875.16;6273470;22;46428;-89
2022/04/17 04:35:46;;;;;;;;;4.00;4.00;;;;;-146.03;100.00;60875.16;6273021;22;45787;-89
2022/04/17 04:38:12;;;;;;;;;3.75;2.75;;;;;-146.03;100.00;60875.16;6272476;22;48418;-89
2022/04/17 04:40:37;;;;;;;;;3.00;3.00;;;;;-146.03;100.00;60875.16;6273544;22;45338;-89
2022/04/17 04:43:03;;;;;;;;;4.00;4.00;;;;;-146.03;100.00;60875.16;6273049;22;62096;-89
2022/04/17 04:48:14;;;;;;;;;3.50;3.50;;;;;-146.03;100.00;60875.16;6273855;22;45278;-89
2022/04/17 04:50:40;;;;;;;;;4.00;4.00;;;;;-146.03;100.00;60875.16;6273163;22;45237;-90
2022/04/17 04:53:05;;;;;;;;;4.25;4.00;;;;;-146.03;100.00;60875.16;6273371;22;46222;-89
2022/04/17 04:55:31;;;;;;;;;7.50;4.75;;;;;-146.03;100.00;60875.16;6273624;22;45307;-89
2022/04/17 04:57:56;;;;;;;;;3.25;3.25;;;;;-146.03;100.00;60875.16;6246189;22;45317;-89
2022/04/17 05:00:22;;;;;;;;;5.50;4.50;;;;;-146.03;100.00;60875.16;6273860;22;45605;-89
2022/04/17 05:02:47;;;;;;;;;4.00;4.00;;;;;-146.03;100.00;60875.16;6272814;22;45301;-89
2022/04/17 05:05:13;;;;;;;;;5.00;3.75;;;;;-146.03;100.00;60875.16;6273839;22;45272;-89
2022/04/17 05:07:38;;;;;;;;;5.00;5.00;;;;;-146.03;100.00;60875.16;6274136;22;45152;-89
2022/04/17 05:10:05;;;;;;;;;5.25;4.00;;;;;-146.03;100.00;60875.16;6273976;22;45132;-89
2022/04/17 05:12:31;;;;;;;;;5.00;3.50;;;;;-146.03;100.00;60875.16;6273755;22;46396;-90
2022/04/17 05:14:57;;;;;;;;;3.75;3.75;;;;;-146.03;100.00;60875.16;6273907;22;45273;-89
2022/04/17 05:17:22;;;;;;;;;4.00;4.00;;;;;-146.03;100.00;60875.16;6273657;22;45329;-90
2022/04/17 05:19:49;;;;;;;;;5.00;4.00;;;;;-146.03;100.00;60875.16;6246207;22;45250;-89
2022/04/17 05:22:19;;;;;;;;;5.25;4.00;;;;;-146.03;100.00;60875.16;6273381;22;47037;-90
2022/04/17 05:24:45;;;;;;;;;3.00;3.00;;;;;-146.03;100.00;60875.16;6273684;22;45311;-90
2022/04/17 05:27:12;;;;;;;;;4.75;4.75;;;;;-146.03;100.00;60875.16;6273210;22;45330;-89
2022/04/17 05:29:39;;;;;;;;;4.50;4.50;;;;;-146.03;100.00;60875.16;6274198;22;45450;-89
2022/04/17 05:32:05;;;;;;;;;3.00;3.00;;;;;-146.03;100.00;60875.16;6273210;22;46321;-90
2022/04/17 05:34:30;;;;;;;;;5.25;5.25;;;;;-146.03;100.00;60875.16;6273681;22;45789;-89
2022/04/17 05:36:56;;;;;;;;;5.50;4.75;;;;;-146.03;100.00;60875.16;6274000;22;45306;-90
2022/04/17 05:39:21;;;;;;;;;4.00;4.00;;;;;-146.03;100.00;60875.16;6273897;22;45305;-90
2022/04/17 05:41:47;;;;;;;;;3.75;3.75;;;;;-146.03;100.00;60875.16;6273564;22;45554;-89
2022/04/17 05:44:14;;;;;;;;;8.75;6.00;;;;;-146.03;100.00;60875.16;6273790;22;45461;-90
2022/04/17 05:46:41;;;;;;;;;4.75;4.75;;;;;-146.03;100.00;60875.16;6245632;22;45261;-89
2022/04/17 05:49:07;;;;;;;;;6.00;4.25;;;;;-146.03;100.00;60875.16;6273991;22;45446;-89
2022/04/17 05:51:34;;;;;;;;;4.00;4.00;;;;;-146.03;100.00;60875.16;6273666;22;46232;-89
2022/04/17 05:54:00;;;;;;;;;4.50;4.50;;;;;-146.03;100.00;60875.16;6273535;22;45357;-90
2022/04/17 05:56:27;;;;;;;;;4.75;4.75;;;;;-146.03;100.00;60875.16;6273404;22;45341;-90
2022/04/17 05:58:52;;;;;;;;;7.00;5.75;;;;;-146.03;100.00;60875.16;6273743;22;45282;-89
2022/04/17 06:01:17;;;;;;;;;0.50;0.50;;;;;-146.03;100.00;60875.16;6272823;22;45317;-89
2022/04/17 06:03:43;;;;;;;;;5.75;5.75;;;;;-146.03;100.00;60875.16;6273648;22;45416;-89
2022/04/17 06:06:08;;;;;;;;;6.50;5.75;;;;;-146.03;100.00;60875.16;6273586;22;45226;-89
2022/04/17 06:08:33;;;;;;;;;2.50;2.50;;;;;-146.03;100.00;60875.16;6273573;22;45214;-90
2022/04/17 06:10:59;;;;;;;;;4.25;4.25;;;;;-146.03;100.00;60875.16;6272757;22;59884;-90
2022/04/17 06:13:25;;;;;;;;;6.00;6.00;;;;;-146.03;100.00;60875.16;6273500;22;45219;-89
2022/04/17 06:15:50;;;;;;;;;4.00;4.00;;;;;-146.03;100.00;60875.16;6273075;22;45242;-89
2022/04/17 06:18:15;;;;;;;;;3.50;3.50;;;;;-146.03;100.00;60875.16;6273294;22;50254;-89
2022/04/17 06:20:41;;;;;;;;;5.00;4.00;;;;;-146.03;100.00;60875.16;6272368;22;61766;-89
2022/04/17 06:23:06;;;;;;;;;4.75;4.75;;;;;-146.03;100.00;60875.16;6273229;22;45298;-89
2022/04/17 06:25:32;;;;;;;;;5.00;5.00;;;;;-146.03;100.00;60875.16;6273923;22;45269;-90
2022/04/17 06:27:57;;;;;;;;;4.00;4.00;;;;;-146.03;100.00;60875.16;6273085;22;45124;-90
2022/04/17 06:30:23;;;;;;;;;4.50;4.00;;;;;-146.03;100.00;60875.16;6272553;22;45262;-89
2022/04/17 06:32:49;;;;;;;;;5.00;3.75;;;;;-146.03;100.00;60875.16;6272529;22;45374;-86
2022/04/17 06:35:15;;;;;;;;;6.00;4.75;;;;;-146.03;100.00;60875.16;6245629;22;45255;-87
2022/04/17 06:38:01;;;;;;;;;4.00;4.00;;;;;-146.03;100.00;60875.16;6273673;22;45292;-87
2022/04/17 06:40:33;;;;;;;;;6.00;6.00;;;;;-146.03;100.00;60875.16;6245322;22;47678;-87
2022/04/17 06:43:01;;;;;;;;;3.25;3.25;;;;;-146.03;100.00;60875.16;6273214;22;45353;-87
2022/04/17 06:45:28;;;;;;;;;5.00;5.00;;;;;-146.03;100.00;60875.16;6245051;22;45340;-87
2022/04/17 06:47:55;;;;;;;;;5.75;4.75;;;;;-146.03;100.00;60875.16;6272805;22;45254;-87
2022/04/17 06:50:22;;;;;;;;;5.00;5.00;;;;;-146.03;100.00;60875.16;6273113;22;45913;-86
2022/04/17 06:52:48;;;;;;;;;4.00;4.00;;;;;-146.03;100.00;60875.16;6273064;22;45282;-87
2022/04/17 06:55:13;;;;;;;;;4.25;4.00;;;;;-146.03;100.00;60875.16;6273385;22;45330;-87
2022/04/17 06:57:47;;;;;;;;;4.50;4.50;;;;;-146.03;100.00;60875.16;6245418;22;45317;-86
2022/04/17 07:00:14;;;;;;;;;6.50;4.75;;;;;-146.03;100.00;60875.16;6272306;22;45896;-86
2022/04/17 07:02:41;;;;;;;;;4.00;3.25;;;;;-146.03;100.00;60875.16;6272835;22;45426;-87
2022/04/17 07:05:07;;;;;;;;;4.50;4.00;;;;;-146.03;100.00;60875.16;6273320;22;45316;-87
2022/04/17 07:07:33;;;;;;;;;6.25;6.25;;;;;-146.03;100.00;60875.16;6273493;22;45368;-87
2022/04/17 07:10:00;;;;;;;;;4.75;4.75;;;;;-146.03;100.00;60875.16;6272727;22;46536;-86
2022/04/17 07:12:25;;;;;;;;;4.75;4.75;;;;;-146.03;100.00;60875.16;6273433;22;45250;-89
2022/04/17 07:14:50;;;;;;;;;4.50;4.00;;;;;-146.03;100.00;60875.16;6272549;22;45153;-89
2022/04/17 07:17:16;;;;;;;;;6.00;5.00;;;;;-146.03;100.00;60875.16;6244960;22;45551;-90
2022/04/17 07:19:42;;;;;;;;;4.25;4.00;;;;;-146.03;100.00;60875.16;6272812;22;45294;-90
2022/04/17 07:22:07;;;;;;;;;4.00;4.00;;;;;-146.03;100.00;60875.16;6272223;22;45380;-90
2022/04/17 07:24:32;;;;;;;;;3.75;3.25;;;;;-146.03;100.00;60875.16;6272485;22;45430;-90
2022/04/17 07:27:00;;;;;;;;;5.75;5.00;;;;;-146.03;100.00;60875.16;6273530;22;45200;-90
2022/04/17 07:29:26;;;;;;;;;5.50;5.50;;;;;-146.03;100.00;60875.16;6273586;22;46222;-91
2022/04/17 07:31:55;;;;;;;;;6.00;6.00;;;;;-146.03;100.00;60875.16;6274013;22;45330;-90
2022/04/17 07:34:21;;;;;;;;;6.00;6.00;;;;;-146.03;100.00;60875.16;6274626;22;45227;-90
2022/04/17 07:36:47;;;;;;;;;7.50;6.00;;;;;-146.03;100.00;60875.16;6274428;22;45272;-90
2022/04/17 07:39:18;;;;;;;;;5.25;5.25;;;;;-146.03;100.00;60875.16;6274309;22;45340;-89
2022/04/17 07:41:46;;;;;;;;;5.00;5.00;;;;;-146.03;100.00;60875.16;6274954;22;45267;-90
2022/04/17 07:44:12;;;;;;;;;4.75;3.50;;;;;-146.03;100.00;60875.16;6274218;22;45261;-90
2022/04/17 07:46:42;;;;;;;;;5.25;5.25;;;;;-146.03;100.00;60875.16;6274472;22;45163;-90
2022/04/17 07:49:08;;;;;;;;;4.25;4.25;;;;;-146.03;100.00;60875.16;6274149;22;45884;-90
2022/04/17 07:51:33;;;;;;;;;5.00;5.00;;;;;-146.03;100.00;60875.16;6280166;22;45298;-89
2022/04/17 07:53:59;;;;;;;;;3.25;3.25;;;;;-146.03;100.00;60875.16;6274476;22;45157;-90
2022/04/17 07:56:24;;;;;;;;;5.50;4.75;;;;;-146.03;100.00;60875.16;6274368;22;45155;-89
2022/04/17 07:58:50;;;;;;;;;5.75;5.75;;;;;-146.03;100.00;60875.16;6244734;22;67789;-89
2022/04/17 08:01:16;;;;;;;;;3.75;3.75;;;;;-146.03;100.00;60875.16;6246140;22;47984;-89
2022/04/17 08:06:10;;;;;;;;;3.25;3.25;;;;;-146.03;100.00;60875.16;6274314;22;45237;-89
2022/04/17 08:08:37;;;;;;;;;4.25;3.00;;;;;-146.03;100.00;60875.16;6274252;22;46055;-89
2022/04/17 08:11:04;;;;;;;;;4.00;4.00;;;;;-146.03;100.00;60875.16;6274078;22;45523;-89
2022/04/17 08:13:29;;;;;;;;;4.00;4.00;;;;;-146.03;100.00;60875.16;6273571;22;45186;-90
2022/04/17 08:15:55;;;;;;;;;6.50;5.50;;;;;-146.03;100.00;60875.16;6274245;22;45273;-89
2022/04/17 08:18:20;;;;;;;;;7.75;7.50;;;;;-146.03;100.00;60875.16;6274067;22;45484;-89
2022/04/17 08:20:46;;;;;;;;;5.75;4.75;;;;;-146.03;100.00;60875.16;6273794;22;45160;-89
2022/04/17 08:23:11;;;;;;;;;4.50;4.50;;;;;-146.03;100.00;60875.16;6274403;22;45233;-89
2022/04/17 08:25:37;;;;;;;;;6.25;6.00;;;;;-146.03;100.00;60875.16;6274388;22;45274;-89
2022/04/17 08:28:03;;;;;;;;;7.00;7.00;;;;;-146.03;100.00;60875.16;6273067;22;46089;-89
2022/04/17 08:30:32;;;;;;;;;4.00;4.00;;;;;-146.03;100.00;60875.16;6273505;22;45291;-89
2022/04/17 08:33:01;;;;;;;;;7.00;5.00;;;;;-146.03;100.00;60875.16;6274096;22;45349;-89
2022/04/17 08:35:27;;;;;;;;;5.25;5.00;;;;;-146.03;100.00;60875.16;6274272;22;45380;-89
2022/04/17 08:37:52;;;;;;;;;6.00;5.00;;;;;-146.03;100.00;60875.16;6273088;22;46112;-89
2022/04/17 08:40:19;;;;;;;;;6.00;6.00;;;;;-146.03;100.00;60875.16;6273007;22;45235;-88
2022/04/17 08:42:47;;;;;;;;;3.00;3.00;;;;;-146.03;100.00;60875.16;6274181;22;45431;-89
2022/04/17 08:45:13;;;;;;;;;6.00;6.00;;;;;-146.03;100.00;60875.16;6273953;22;45358;-89
2022/04/17 08:47:40;;;;;;;;;5.00;3.50;;;;;-146.03;100.00;60875.16;6273905;22;45357;-88
2022/04/17 08:50:10;;;;;;;;;1.25;0.75;;;;;-146.03;100.00;60875.16;6273876;22;45266;-89
2022/04/17 08:52:38;;;;;;;;;4.00;4.00;;;;;-146.03;100.00;60875.16;6273688;22;45277;-89
2022/04/17 08:55:04;;;;;;;;;3.75;3.75;;;;;-146.03;100.00;60875.16;6273417;22;45481;-89
2022/04/17 08:57:29;;;;;;;;;3.00;3.00;;;;;-146.03;100.00;60875.16;6273555;22;46277;-89
2022/04/17 08:59:55;;;;;;;;;4.50;4.00;;;;;-146.03;100.00;60875.16;6273077;22;45564;-89
2022/04/17 09:02:20;;;;;;;;;3.75;3.75;;;;;-146.03;100.00;60875.16;6273609;22;45300;-90
2022/04/17 09:04:46;;;;;;;;;4.00;4.00;;;;;-146.03;100.00;60875.16;6274228;22;45310;-89
2022/04/17 09:07:13;;;;;;;;;3.50;3.50;;;;;-146.03;100.00;60875.16;6245491;22;47096;-89
2022/04/17 09:09:50;;;;;;;;;4.00;4.00;;;;;-146.03;100.00;60875.16;6273532;22;45681;-89
2022/04/17 09:12:24;;;;;;;;;3.00;3.00;;;;;-146.03;100.00;60875.16;6273794;22;45281;-89
2022/04/17 09:14:50;;;;;;;;;5.75;4.75;;;;;-146.03;100.00;60875.16;6273687;22;45349;-89
2022/04/17 09:17:16;;;;;;;;;5.00;5.00;;;;;-146.03;100.00;60875.16;6273767;22;45447;-89
2022/04/17 09:19:42;;;;;;;;;3.00;3.00;;;;;-146.03;100.00;60875.16;6273440;22;45258;-89
2022/04/17 09:22:09;;;;;;;;;5.00;3.75;;;;;-146.03;100.00;60875.16;6273920;22;45266;-89
2022/04/17 09:24:39;;;;;;;;;3.00;3.00;;;;;-146.03;100.00;60875.16;6272955;22;45270;-89
2022/04/17 09:27:06;;;;;;;;;3.00;3.00;;;;;-146.03;100.00;60875.16;6245067;22;47192;-89
2022/04/17 09:29:35;;;;;;;;;3.50;3.50;;;;;-146.03;100.00;60875.16;6273726;22;45741;-88
2022/04/17 09:32:12;;;;;;;;;4.50;4.50;;;;;-146.03;100.00;60875.16;6273153;22;45175;-89
2022/04/17 09:34:50;;;;;;;;;3.00;3.00;;;;;-146.03;100.00;60875.16;6245477;22;45252;-88
2022/04/17 09:37:23;;;;;;;;;6.00;3.50;;;;;-146.03;100.00;60875.16;6273592;22;45389;-88
2022/04/17 09:39:50;;;;;;;;;6.00;5.00;;;;;-146.03;100.00;60875.16;6272570;22;45902;-88
2022/04/17 09:42:24;;;;;;;;;3.00;3.00;;;;;-146.03;100.00;60875.16;6273722;22;45227;-88
2022/04/17 09:44:51;;;;;;;;;4.00;4.00;;;;;-146.03;100.00;60875.16;6273507;22;45315;-88
2022/04/17 09:47:25;;;;;;;;;7.50;7.00;;;;;-146.03;100.00;60875.16;6245488;22;48203;-88
2022/04/17 09:49:57;;;;;;;;;3.25;3.25;;;;;-146.03;100.00;60875.16;6243991;22;45313;-89
2022/04/17 09:52:25;;;;;;;;;5.50;5.50;;;;;-146.03;100.00;60875.16;6271645;22;45301;-89
2022/04/17 09:54:52;;;;;;;;;3.50;3.00;;;;;-146.03;100.00;60875.16;6271519;22;45433;-88
2022/04/17 09:57:20;;;;;;;;;3.50;3.50;;;;;-146.03;100.00;60875.16;6271859;22;46381;-88
2022/04/17 09:59:47;;;;;;;;;4.75;4.75;;;;;-146.03;100.00;60875.16;6272116;22;45263;-90
2022/04/17 10:02:15;;;;;;;;;4.00;4.00;;;;;-146.03;100.00;60875.16;6244084;22;45368;-88
2022/04/17 10:04:42;;;;;;;;;4.25;4.00;;;;;-146.03;100.00;60875.16;6271882;22;45317;-87
2022/04/17 10:07:09;;;;;;;;;5.50;3.50;;;;;-146.03;100.00;60875.16;6271575;22;46098;-87
2022/04/17 10:09:36;;;;;;;;;4.00;3.75;;;;;-146.03;100.00;60875.16;6243691;22;45212;-88
2022/04/17 10:12:02;;;;;;;;;5.25;2.50;;;;;-146.03;100.00;60875.16;6272144;22;45294;-88
2022/04/17 10:14:31;;;;;;;;;3.50;3.50;;;;;-146.03;100.00;60875.16;6272450;22;45254;-87
2022/04/17 10:16:57;;;;;;;;;4.00;4.00;;;;;-146.03;100.00;60875.16;6271835;22;45396;-87
2022/04/17 10:19:25;;;;;;;;;3.25;3.25;;;;;-146.03;100.00;60875.16;6270789;22;45289;-88
2022/04/17 10:21:51;;;;;;;;;1.50;1.50;;;;;-146.03;100.00;60875.16;6270310;22;45355;-87
2022/04/17 10:24:23;;;;;;;;;2.00;2.00;;;;;-146.03;100.00;60875.16;6272024;22;45158;-86
2022/04/17 10:26:51;;;;;;;;;4.00;4.00;;;;;-146.03;100.00;60875.16;6271085;22;45612;-87
2022/04/17 10:29:25;;;;;;;;;3.00;3.00;;;;;-146.03;100.00;60875.16;6271903;22;45310;-86
2022/04/17 10:31:56;;;;;;;;;2.25;2.25;;;;;-146.03;100.00;60875.16;6262895;22;45376;-88
2022/04/17 10:34:58;;;;;;;;;3.75;3.75;;;;;-146.03;100.00;60875.16;6270888;22;45451;-87
2022/04/17 10:37:51;;;;;;;;;3.25;3.25;;;;;-146.03;100.00;60875.16;6150010;23;46652;-87
2022/04/17 10:40:18;;;;;;;;;3.00;3.00;;;;;-146.03;100.00;60875.16;6175834;23;45539;-87
2022/04/17 10:42:58;;;;;;;;;2.00;2.00;;;;;-146.03;100.00;60875.16;6175574;23;45265;-87
2022/04/17 10:45:25;;;;;;;;;3.00;3.00;;;;;-146.03;100.00;60875.16;6150494;23;45442;-84
2022/04/17 10:48:05;;;;;;;;;3.00;2.00;;;;;-146.03;100.00;60875.16;6175010;23;45707;-86
2022/04/17 10:50:43;;;;;;;;;2.25;2.25;;;;;-146.03;100.00;60875.16;6176126;23;45401;-87
2022/04/17 10:53:31;;;;;;;;;5.25;5.25;;;;;-146.03;100.00;60875.16;6175739;23;45317;-86
2022/04/17 10:56:08;;;;;;;;;3.00;2.00;;;;;-146.03;100.00;60875.16;6175676;23;45310;-86
2022/04/17 10:58:54;;;;;;;;;4.75;4.75;;;;;-146.03;100.00;60875.16;6175439;23;46275;-86
2022/04/17 11:01:41;;;;;;;;;3.25;2.00;;;;;-146.03;100.00;60875.16;6150668;23;45342;-86
2022/04/17 11:04:18;;;;;;;;;5.00;3.50;;;;;-146.03;100.00;60875.16;6176940;23;45422;-86
2022/04/17 11:06:44;;;;;;;;;6.25;5.25;;;;;-146.03;100.00;60875.16;6176808;23;45369;-87
2022/04/17 11:09:15;;;;;;;;;3.00;3.00;;;;;-146.03;100.00;60875.16;6177019;23;46312;-86
2022/04/17 11:11:43;;;;;;;;;5.50;4.00;;;;;-146.03;100.00;60875.16;6176756;23;45370;-86
2022/04/17 11:14:13;;;;;;;;;2.75;2.75;;;;;-146.03;100.00;60875.16;6227957;22;45344;-87
2022/04/17 11:16:48;;;;;;;;;5.75;4.75;;;;;-146.03;100.00;60875.16;6271297;22;45210;-87
2022/04/17 11:19:15;;;;;;;;;6.00;5.00;;;;;-146.03;100.00;60875.16;6271639;22;46305;-86
2022/04/17 11:21:43;;;;;;;;;8.00;6.25;;;;;-146.03;100.00;60875.16;6271029;22;45437;-87
2022/04/17 11:24:09;;;;;;;;;4.00;4.00;;;;;-146.03;100.00;60875.16;6271881;22;45636;-86